createdAt,value
2023-12-22T00:01:44.412Z,78.90
2023-12-22T00:04:18.625Z,78.78
2023-12-22T00:06:53.284Z,78.89
2023-12-22T00:09:26.661Z,78.95
2023-12-22T00:12:00.200Z,78.93
2023-12-22T00:14:33.654Z,78.94
2023-12-22T00:17:07.913Z,78.93
2023-12-22T00:19:41.895Z,79.08
2023-12-22T00:22:15.269Z,79.14
2023-12-22T00:24:48.978Z,79.18
2023-12-22T00:27:22.516Z,79.28
2023-12-22T00:29:56.345Z,79.23
2023-12-22T00:32:29.678Z,79.24
2023-12-22T00:35:03.543Z,79.20
2023-12-22T00:37:37.433Z,79.13
2023-12-22T00:42:54.591Z,79.02
2023-12-22T00:45:27.858Z,78.83
2023-12-22T00:48:03.827Z,78.82
2023-12-22T00:50:37.723Z,78.59
2023-12-22T00:53:11.212Z,78.71
2023-12-22T00:55:44.616Z,78.70
2023-12-22T00:58:18.499Z,78.75
2023-12-22T01:00:52.387Z,78.65
2023-12-22T01:03:26.137Z,78.45
2023-12-22T01:05:59.787Z,78.39
2023-12-22T01:08:33.512Z,78.28
2023-12-22T01:11:07.508Z,78.27
2023-12-22T01:13:41.071Z,78.36
2023-12-22T01:16:16.301Z,78.26
2023-12-22T01:18:50.055Z,78.21
2023-12-22T01:21:24.192Z,78.07
2023-12-22T01:23:57.997Z,78.02
2023-12-22T01:26:31.402Z,77.92
2023-12-22T01:29:05.004Z,77.69
2023-12-22T01:31:38.948Z,77.32
2023-12-22T01:34:12.875Z,77.48
2023-12-22T01:36:46.533Z,77.42
2023-12-22T01:39:20.849Z,77.32
2023-12-22T01:41:54.524Z,77.35
2023-12-22T01:44:27.977Z,77.26
2023-12-22T01:47:02.320Z,77.14
2023-12-22T01:49:35.944Z,76.98
2023-12-22T01:52:10.289Z,77.03
2023-12-22T01:54:44.036Z,76.94
2023-12-22T01:57:19.248Z,76.86
2023-12-22T01:59:53.901Z,76.18
2023-12-22T02:02:27.545Z,76.36
2023-12-22T02:16:41.167Z,76.32
2023-12-22T02:19:20.491Z,76.15
2023-12-22T02:22:10.331Z,75.93
2023-12-22T02:24:45.352Z,76.01
2023-12-22T02:27:25.386Z,76.20
2023-12-22T02:30:02.487Z,76.19
2023-12-22T02:32:40.054Z,76.13
2023-12-22T02:35:16.127Z,76.24
2023-12-22T02:37:51.372Z,76.29
2023-12-22T02:40:26.120Z,76.24
2023-12-22T02:42:59.545Z,76.17
2023-12-22T02:45:33.540Z,76.04
2023-12-22T02:48:08.935Z,76.00
2023-12-22T02:50:42.778Z,75.93
2023-12-22T02:53:16.352Z,75.51
2023-12-22T02:55:50.218Z,75.63
2023-12-22T02:58:23.958Z,75.37
2023-12-22T03:00:57.229Z,75.24
2023-12-22T03:03:31.156Z,75.39
2023-12-22T03:06:05.012Z,75.36
2023-12-22T03:08:38.719Z,75.48
2023-12-22T03:11:12.373Z,75.47
2023-12-22T03:13:46.036Z,75.18
2023-12-22T03:16:20.016Z,75.40
2023-12-22T03:18:53.674Z,75.18
2023-12-22T03:21:28.207Z,75.43
2023-12-22T03:24:01.801Z,75.63
2023-12-22T03:26:35.326Z,75.53
2023-12-22T03:29:08.933Z,75.54
2023-12-22T03:34:25.015Z,75.56
2023-12-22T03:36:58.618Z,75.41
2023-12-22T03:39:32.223Z,75.60
2023-12-22T03:42:06.623Z,75.62
2023-12-22T03:44:40.064Z,75.73
2023-12-22T03:47:13.548Z,75.83
2023-12-22T03:49:47.226Z,75.96
2023-12-22T03:52:21.409Z,75.87
2023-12-22T03:54:55.189Z,75.84
2023-12-22T03:57:29.435Z,75.75
2023-12-22T04:00:02.892Z,75.70
2023-12-22T04:02:36.770Z,75.74
2023-12-22T04:05:12.923Z,75.79
2023-12-22T04:07:46.796Z,75.80
2023-12-22T04:10:21.787Z,75.98
2023-12-22T04:12:55.393Z,76.08
2023-12-22T04:15:29.060Z,76.03
2023-12-22T04:18:02.930Z,75.86
2023-12-22T04:20:37.085Z,75.92
2023-12-22T04:23:10.555Z,76.08
2023-12-22T04:25:44.313Z,76.08
2023-12-22T04:28:18.091Z,76.04
2023-12-22T04:30:52.074Z,76.25
2023-12-22T04:33:25.795Z,75.99
2023-12-22T04:35:59.598Z,76.28
2023-12-22T04:38:32.990Z,76.08
2023-12-22T04:41:06.483Z,75.90
2023-12-22T04:43:40.062Z,76.05
2023-12-22T04:46:13.762Z,76.06
2023-12-22T04:48:47.192Z,75.99
2023-12-22T04:51:21.119Z,76.18
2023-12-22T04:53:54.972Z,76.25
2023-12-22T04:56:31.285Z,76.25
2023-12-22T04:59:04.916Z,76.16
2023-12-22T05:01:39.327Z,76.09
2023-12-22T05:04:13.067Z,75.96
2023-12-22T05:06:47.124Z,76.01
2023-12-22T05:09:20.674Z,75.83
2023-12-22T05:11:54.331Z,75.83
2023-12-22T05:14:28.170Z,75.89
2023-12-22T05:17:02.687Z,75.93
2023-12-22T05:19:36.320Z,75.78
2023-12-22T05:22:09.927Z,75.71
2023-12-22T05:24:43.598Z,75.75
2023-12-22T05:27:17.326Z,75.82
2023-12-22T05:29:51.106Z,75.81
2023-12-22T05:32:24.882Z,75.89
2023-12-22T05:35:00.145Z,75.88
2023-12-22T05:37:35.629Z,75.83
2023-12-22T05:40:13.310Z,75.81
2023-12-22T05:42:45.379Z,75.80
2023-12-22T05:45:19.689Z,75.69
2023-12-22T05:47:53.558Z,75.49
2023-12-22T05:50:27.572Z,75.71
2023-12-22T05:53:02.252Z,75.78
2023-12-22T05:55:35.882Z,75.84
2023-12-22T05:58:09.696Z,75.94
2023-12-22T06:00:43.966Z,75.77
2023-12-22T06:03:17.600Z,75.64
2023-12-22T06:05:51.451Z,75.77
2023-12-22T06:08:25.054Z,75.83
2023-12-22T06:10:58.648Z,75.71
2023-12-22T06:13:32.301Z,75.74
2023-12-22T06:16:06.451Z,75.82
2023-12-22T06:18:39.974Z,75.56
2023-12-22T06:21:13.809Z,75.51
2023-12-22T06:23:47.415Z,75.71
2023-12-22T06:26:21.265Z,75.83
2023-12-22T06:28:54.790Z,75.91
2023-12-22T06:31:28.609Z,75.94
2023-12-22T06:34:04.129Z,76.02
2023-12-22T06:36:38.063Z,76.00
2023-12-22T06:39:11.460Z,76.08
2023-12-22T06:41:45.156Z,75.90
2023-12-22T06:44:18.748Z,75.60
2023-12-22T06:46:52.557Z,75.88
2023-12-22T06:49:28.154Z,75.87
2023-12-22T06:52:02.739Z,75.72
2023-12-22T06:54:36.764Z,75.78
2023-12-22T06:57:12.292Z,75.59
2023-12-22T06:59:46.940Z,75.72
2023-12-22T07:02:23.556Z,75.70
2023-12-22T07:05:09.122Z,75.52
2023-12-22T07:07:42.945Z,75.39
2023-12-22T07:10:16.332Z,75.47
2023-12-22T07:12:50.255Z,75.69
2023-12-22T07:15:25.008Z,75.52
2023-12-22T07:17:58.902Z,75.30
2023-12-22T07:20:36.856Z,75.35
2023-12-22T07:23:12.477Z,75.66
2023-12-22T07:25:47.090Z,75.29
2023-12-22T07:28:20.942Z,75.10
2023-12-22T07:30:56.229Z,75.19
2023-12-22T07:33:30.011Z,75.36
2023-12-22T07:36:03.419Z,75.35
2023-12-22T07:38:40.772Z,75.10
2023-12-22T07:41:14.167Z,75.11
2023-12-22T07:43:48.450Z,74.68
2023-12-22T07:46:24.724Z,74.93
2023-12-22T07:48:58.761Z,75.07
2023-12-22T07:51:32.893Z,75.08
2023-12-22T07:54:07.591Z,74.89
2023-12-22T07:56:42.400Z,74.99
2023-12-22T07:59:23.697Z,75.25
2023-12-22T08:01:51.383Z,74.75
2023-12-22T08:04:24.921Z,74.79
2023-12-22T08:06:58.614Z,74.09
2023-12-22T08:09:32.304Z,73.93
2023-12-22T08:12:06.565Z,73.62
2023-12-22T08:14:40.158Z,73.54
2023-12-22T08:17:14.630Z,72.83
2023-12-22T08:19:49.567Z,72.47
2023-12-22T08:22:26.076Z,72.75
2023-12-22T08:24:58.834Z,73.08
2023-12-22T08:27:33.550Z,73.09
2023-12-22T08:30:09.140Z,72.87
2023-12-22T08:32:43.483Z,71.47
2023-12-22T08:35:17.866Z,70.73
2023-12-22T08:37:51.870Z,69.50
2023-12-22T08:40:28.228Z,70.41
2023-12-22T08:43:02.497Z,71.01
2023-12-22T08:45:36.960Z,70.15
2023-12-22T08:48:13.568Z,70.74
2023-12-22T08:50:47.248Z,70.20
2023-12-22T08:53:21.014Z,69.69
2023-12-22T08:55:54.750Z,69.53
2023-12-22T08:58:28.516Z,68.59
2023-12-22T09:01:02.298Z,68.53
2023-12-22T09:03:39.466Z,69.06
2023-12-22T09:08:49.175Z,68.70
2023-12-22T09:11:23.466Z,68.92
2023-12-22T09:13:57.234Z,68.11
2023-12-22T09:16:30.906Z,68.09
2023-12-22T09:19:04.942Z,68.06
2023-12-22T09:21:38.809Z,68.51
2023-12-22T09:24:13.541Z,66.79
2023-12-22T09:26:47.117Z,66.01
2023-12-22T09:29:22.520Z,67.07
2023-12-22T09:31:56.199Z,66.67
2023-12-22T09:34:30.988Z,65.49
2023-12-22T09:37:04.791Z,65.63
2023-12-22T09:39:38.882Z,65.72
2023-12-22T09:42:12.414Z,65.63
2023-12-22T09:44:49.701Z,66.37
2023-12-22T09:47:23.791Z,65.66
2023-12-22T09:49:58.410Z,65.96
2023-12-22T09:52:34.506Z,66.34
2023-12-22T09:55:11.214Z,65.72
2023-12-22T09:57:45.184Z,66.39
2023-12-22T10:00:20.944Z,65.22
2023-12-22T10:02:54.611Z,64.42
2023-12-22T10:05:28.167Z,64.03
2023-12-22T10:08:04.245Z,64.91
2023-12-22T10:10:39.761Z,64.99
2023-12-22T10:13:14.125Z,65.04
2023-12-22T10:15:48.740Z,65.25
2023-12-22T10:18:22.529Z,64.32
2023-12-22T10:20:56.328Z,64.27
2023-12-22T10:23:30.133Z,64.88
2023-12-22T10:26:12.600Z,65.64
2023-12-22T10:28:50.910Z,65.53
2023-12-22T10:31:25.146Z,65.21
2023-12-22T10:33:58.837Z,65.84
2023-12-22T10:36:32.332Z,65.61
2023-12-22T10:39:06.077Z,65.44
2023-12-22T10:41:39.613Z,65.90
2023-12-22T10:44:14.549Z,66.24
2023-12-22T10:46:49.531Z,66.07
2023-12-22T10:49:23.587Z,66.12
2023-12-22T10:51:57.610Z,66.31
2023-12-22T10:54:32.194Z,66.42
2023-12-22T10:57:06.855Z,66.39
2023-12-22T10:59:47.063Z,66.31
2023-12-22T11:02:21.042Z,66.58
2023-12-22T11:05:00.127Z,66.83
2023-12-22T11:07:39.270Z,66.78
2023-12-22T11:10:15.141Z,66.86
2023-12-22T11:12:51.259Z,66.93
2023-12-22T11:15:26.479Z,67.16
2023-12-22T11:18:02.437Z,67.34
2023-12-22T11:20:37.471Z,67.79
2023-12-22T11:23:13.144Z,67.80
2023-12-22T11:25:48.626Z,67.51
2023-12-22T11:28:23.936Z,67.81
2023-12-22T11:30:59.182Z,67.68
2023-12-22T11:33:37.000Z,67.85
2023-12-22T11:36:12.239Z,67.51
2023-12-22T11:38:47.877Z,67.36
2023-12-22T11:41:24.176Z,67.67
2023-12-22T11:43:59.126Z,67.95
2023-12-22T11:46:34.537Z,67.90
2023-12-22T11:49:08.675Z,68.14
2023-12-22T11:51:42.990Z,68.07
2023-12-22T11:55:01.782Z,68.18
2023-12-22T11:57:39.373Z,68.40
2023-12-22T12:00:23.610Z,68.82
2023-12-22T12:02:59.214Z,69.03
2023-12-22T12:05:33.333Z,69.27
2023-12-22T12:08:11.197Z,69.38
2023-12-22T12:10:57.633Z,69.60
2023-12-22T12:13:33.616Z,69.56
2023-12-22T12:16:09.198Z,69.77
2023-12-22T12:18:43.832Z,69.89
2023-12-22T12:21:19.043Z,69.91
2023-12-22T12:23:52.643Z,69.74
2023-12-22T12:26:28.084Z,69.82
2023-12-22T12:31:46.217Z,70.20
2023-12-22T12:34:22.355Z,70.12
2023-12-22T12:36:56.680Z,70.25
2023-12-22T12:39:35.164Z,70.43
2023-12-22T12:42:10.471Z,70.53
2023-12-22T12:44:45.014Z,70.77
2023-12-22T12:47:19.154Z,70.85
2023-12-22T12:50:00.899Z,70.87
2023-12-22T12:52:36.724Z,71.00
2023-12-22T12:55:11.854Z,71.26
2023-12-22T12:57:45.612Z,71.39
2023-12-22T13:00:21.611Z,71.48
2023-12-22T13:02:57.409Z,71.59
2023-12-22T13:05:31.296Z,71.57
2023-12-22T13:08:15.383Z,71.56
2023-12-22T13:10:48.691Z,71.66
2023-12-22T13:13:22.415Z,71.72
2023-12-22T13:15:55.733Z,71.97
2023-12-22T13:18:30.318Z,71.90
2023-12-22T13:21:05.021Z,72.06
2023-12-22T13:23:38.994Z,72.05
2023-12-22T13:26:22.658Z,72.10
2023-12-22T13:29:02.096Z,72.16
2023-12-22T13:31:38.679Z,72.04
2023-12-22T13:34:16.354Z,71.92
2023-12-22T13:36:50.381Z,71.86
2023-12-22T13:39:25.220Z,71.71
2023-12-22T13:41:58.791Z,71.69
2023-12-22T13:44:32.674Z,71.87
2023-12-22T13:47:08.890Z,72.16
2023-12-22T13:49:43.201Z,72.38
2023-12-22T13:52:30.039Z,72.62
2023-12-22T13:55:04.294Z,72.64
2023-12-22T13:57:38.005Z,72.67
2023-12-22T14:00:32.320Z,72.95
2023-12-22T14:03:06.500Z,73.21
2023-12-22T14:05:40.312Z,73.25
2023-12-22T14:08:14.072Z,73.31
2023-12-22T14:10:51.066Z,73.29
2023-12-22T14:13:24.710Z,73.27
2023-12-22T14:15:58.644Z,73.31
2023-12-22T14:18:32.526Z,73.38
2023-12-22T14:21:07.060Z,73.36
2023-12-22T14:23:40.967Z,73.38
2023-12-22T14:26:14.741Z,73.44
2023-12-22T14:28:50.123Z,73.48
2023-12-22T14:31:24.113Z,73.55
2023-12-22T14:33:59.629Z,73.58
2023-12-22T14:36:33.638Z,73.50
2023-12-22T14:39:09.550Z,73.32
2023-12-22T14:41:45.734Z,73.49
2023-12-22T14:44:21.342Z,73.58
2023-12-22T14:46:56.634Z,73.59
2023-12-22T14:49:32.081Z,73.55
2023-12-22T14:52:08.199Z,73.76
2023-12-22T14:54:44.190Z,73.92
2023-12-22T14:57:19.723Z,74.06
2023-12-22T14:59:54.963Z,74.23
2023-12-22T15:02:31.005Z,74.54
2023-12-22T15:05:06.563Z,74.83
2023-12-22T15:07:41.175Z,74.92
2023-12-22T15:10:16.703Z,74.92
2023-12-22T15:12:51.687Z,74.94
2023-12-22T15:15:26.331Z,74.86
2023-12-22T15:18:00.840Z,74.94
2023-12-22T15:20:35.121Z,74.95
2023-12-22T15:23:09.373Z,75.15
2023-12-22T15:25:43.412Z,75.32
2023-12-22T15:28:17.178Z,75.46
2023-12-22T15:30:51.672Z,75.35
2023-12-22T15:33:25.492Z,75.38
2023-12-22T15:35:59.617Z,75.34
2023-12-22T15:38:33.661Z,75.48
2023-12-22T15:41:08.131Z,75.66
2023-12-22T15:43:42.282Z,75.72
2023-12-22T15:46:16.561Z,75.77
2023-12-22T15:48:50.531Z,75.88
2023-12-22T15:51:24.508Z,75.85
2023-12-22T15:53:58.159Z,75.86
2023-12-22T15:56:31.903Z,75.85
2023-12-22T15:59:05.555Z,75.98
2023-12-22T16:01:45.557Z,76.03
2023-12-22T16:04:19.474Z,76.07
2023-12-22T16:06:53.649Z,75.85
2023-12-22T16:09:27.174Z,75.81
2023-12-22T16:12:01.162Z,75.83
2023-12-22T16:14:37.690Z,75.73
2023-12-22T16:17:12.965Z,75.77
2023-12-22T16:19:47.618Z,75.71
2023-12-22T16:22:21.940Z,75.77
2023-12-22T16:24:57.483Z,75.72
2023-12-22T16:27:33.794Z,75.59
2023-12-22T16:30:10.712Z,75.55
2023-12-22T16:32:44.982Z,75.48
2023-12-22T16:35:19.216Z,75.37
2023-12-22T16:37:52.945Z,75.23
2023-12-22T16:40:26.687Z,74.97
2023-12-22T16:43:00.741Z,75.20
2023-12-22T16:45:35.090Z,75.27
2023-12-22T16:48:10.280Z,75.23
2023-12-22T16:50:44.135Z,75.18
2023-12-22T16:53:17.724Z,75.06
2023-12-22T16:55:51.451Z,75.10
2023-12-22T16:58:25.196Z,75.07
2023-12-22T17:01:17.631Z,75.18
2023-12-22T17:03:36.216Z,75.14
2023-12-22T17:06:10.207Z,74.76
2023-12-22T17:08:45.242Z,74.85
2023-12-22T17:11:19.004Z,74.92
2023-12-22T17:13:52.752Z,75.07
2023-12-22T17:16:26.278Z,75.14
2023-12-22T17:19:00.007Z,75.10
2023-12-22T17:21:33.947Z,75.05
2023-12-22T17:24:08.978Z,75.04
2023-12-22T17:26:43.683Z,75.09
2023-12-22T17:29:17.152Z,75.20
2023-12-22T17:31:52.682Z,75.28
2023-12-22T17:34:27.295Z,75.20
2023-12-22T17:37:01.128Z,75.21
2023-12-22T17:39:35.599Z,75.30
2023-12-22T17:42:10.220Z,75.39
2023-12-22T17:44:43.899Z,75.59
2023-12-22T17:47:17.566Z,75.71
2023-12-22T17:49:51.198Z,75.62
2023-12-22T17:52:25.781Z,75.55
2023-12-22T17:54:59.153Z,75.62
2023-12-22T17:57:32.940Z,75.66
2023-12-22T18:00:08.351Z,75.87
2023-12-22T18:02:42.047Z,76.13
2023-12-22T18:05:16.092Z,76.15
2023-12-22T18:07:50.246Z,76.00
2023-12-22T18:10:24.149Z,76.07
2023-12-22T18:12:57.441Z,76.07
2023-12-22T18:15:31.410Z,76.03
2023-12-22T18:18:07.977Z,76.10
2023-12-22T18:20:43.278Z,76.15
2023-12-22T18:23:18.050Z,76.23
2023-12-22T18:25:52.705Z,76.29
2023-12-22T18:28:26.939Z,76.43
2023-12-22T18:31:00.523Z,76.58
2023-12-22T18:33:36.133Z,76.67
2023-12-22T18:36:11.860Z,76.72
2023-12-22T18:38:46.560Z,76.90
2023-12-22T18:41:20.174Z,77.06
2023-12-22T18:43:54.698Z,77.11
2023-12-22T18:46:30.438Z,77.17
2023-12-22T18:49:04.724Z,77.27
2023-12-22T18:51:38.328Z,77.26
2023-12-22T18:54:11.968Z,77.41
2023-12-22T18:56:47.253Z,77.51
2023-12-22T18:59:21.074Z,77.50
2023-12-22T19:02:08.354Z,77.54
2023-12-22T19:04:30.550Z,77.61
2023-12-22T19:07:04.448Z,77.69
2023-12-22T19:09:50.899Z,77.80
2023-12-22T19:12:24.621Z,77.91
2023-12-22T19:14:58.272Z,77.99
2023-12-22T19:17:32.957Z,78.14
2023-12-22T19:20:08.294Z,78.21
2023-12-22T19:22:42.153Z,78.36
2023-12-22T19:25:15.918Z,78.43
2023-12-22T19:27:51.300Z,78.39
2023-12-22T19:30:24.890Z,78.42
2023-12-22T19:32:58.741Z,78.46
2023-12-22T19:35:32.492Z,78.51
2023-12-22T19:38:07.461Z,78.63
2023-12-22T19:40:42.376Z,78.82
2023-12-22T19:43:16.108Z,79.00
2023-12-22T19:45:50.002Z,79.18
2023-12-22T19:48:23.894Z,79.31
2023-12-22T19:50:57.993Z,79.35
2023-12-22T19:53:31.569Z,79.48
2023-12-22T19:56:05.600Z,79.63
2023-12-22T19:58:39.184Z,79.80
2023-12-22T20:01:12.698Z,79.87
2023-12-22T20:03:46.692Z,79.93
2023-12-22T20:06:20.202Z,79.93
2023-12-22T20:08:54.138Z,80.13
2023-12-22T20:11:28.393Z,80.30
2023-12-22T20:14:02.326Z,80.43
2023-12-22T20:16:36.881Z,80.51
2023-12-22T20:19:10.883Z,80.55
2023-12-22T20:21:44.916Z,80.57
2023-12-22T20:24:18.452Z,80.67
2023-12-22T20:26:52.056Z,80.69
2023-12-22T20:29:26.032Z,80.74
2023-12-22T20:32:00.310Z,80.76
2023-12-22T20:34:34.078Z,80.82
2023-12-22T20:37:07.938Z,80.79
2023-12-22T20:39:43.979Z,80.85
2023-12-22T20:42:17.728Z,80.92
2023-12-22T20:44:52.049Z,80.97
2023-12-22T20:47:25.578Z,81.00
2023-12-22T20:49:59.034Z,81.06
2023-12-22T20:52:35.600Z,81.12
2023-12-22T20:55:10.855Z,81.14
2023-12-22T20:57:46.234Z,81.15
2023-12-22T21:00:20.556Z,81.20
2023-12-22T21:02:54.502Z,81.23
2023-12-22T21:05:28.621Z,81.25
2023-12-22T21:08:02.586Z,81.22
2023-12-22T21:10:38.014Z,81.21
2023-12-22T21:13:11.975Z,81.15
2023-12-22T21:15:46.122Z,81.20
2023-12-22T21:18:19.932Z,81.22
2023-12-22T21:20:53.885Z,81.24
2023-12-22T21:23:28.032Z,81.25
2023-12-22T21:26:01.691Z,81.19
2023-12-22T21:28:35.496Z,81.30
2023-12-22T21:31:10.933Z,81.29
2023-12-22T21:33:44.923Z,81.33
2023-12-22T21:36:25.199Z,81.38
2023-12-22T21:38:59.009Z,81.50
2023-12-22T21:41:33.388Z,81.54
2023-12-22T21:44:06.990Z,81.65
2023-12-22T21:46:46.643Z,81.66
2023-12-22T21:49:20.651Z,81.71
2023-12-22T21:51:54.139Z,81.70
2023-12-22T21:54:28.133Z,81.74
2023-12-22T21:57:01.920Z,81.70
2023-12-22T21:59:35.627Z,81.65
2023-12-22T22:02:09.185Z,81.66
2023-12-22T22:04:43.939Z,81.63
2023-12-22T22:07:18.829Z,81.70
2023-12-22T22:09:52.357Z,81.89
2023-12-22T22:12:25.957Z,81.96
2023-12-22T22:14:59.476Z,82.00
2023-12-22T22:17:35.530Z,82.07
2023-12-22T22:20:12.256Z,82.09
2023-12-22T22:22:45.882Z,82.23
2023-12-22T22:25:19.736Z,82.32
2023-12-22T22:27:53.778Z,82.39
2023-12-22T22:30:27.778Z,82.50
2023-12-22T22:33:03.113Z,82.49
2023-12-22T22:35:37.140Z,82.60
2023-12-22T22:38:11.785Z,82.62
2023-12-22T22:40:45.570Z,82.71
2023-12-22T22:43:19.502Z,82.80
2023-12-22T22:45:53.336Z,82.87
2023-12-22T22:48:27.448Z,83.02
2023-12-22T22:51:01.668Z,83.09
2023-12-22T22:53:35.159Z,83.09
2023-12-22T22:56:09.839Z,83.31
2023-12-22T22:58:45.650Z,83.47
2023-12-22T23:01:19.847Z,83.53
2023-12-22T23:04:00.493Z,83.56
2023-12-22T23:06:29.600Z,83.51
2023-12-22T23:09:03.954Z,83.49
2023-12-22T23:11:37.631Z,83.51
2023-12-22T23:14:11.411Z,83.63
2023-12-22T23:16:45.023Z,83.72
2023-12-22T23:19:18.796Z,83.74
2023-12-22T23:21:52.551Z,83.79
2023-12-22T23:24:26.292Z,83.81
2023-12-22T23:26:59.888Z,83.87
2023-12-22T23:29:33.439Z,83.85
2023-12-22T23:32:08.961Z,83.97
2023-12-22T23:34:42.663Z,83.96
2023-12-22T23:37:16.252Z,84.11
2023-12-22T23:39:50.846Z,84.10
2023-12-22T23:42:24.458Z,84.10
2023-12-22T23:44:57.979Z,84.20
2023-12-22T23:47:33.169Z,84.28
2023-12-22T23:50:08.699Z,84.22
2023-12-22T23:52:42.261Z,84.29
2023-12-22T23:55:16.588Z,84.29
2023-12-22T23:57:50.659Z,84.39
